createdAt,value
2022-10-23T00:00:42.157Z,31.90
2022-10-23T00:03:09.750Z,22.47
2022-10-23T00:05:40.515Z,24.92
2022-10-23T00:08:07.962Z,15.45
2022-10-23T00:10:35.263Z,20.83
2022-10-23T00:13:02.864Z,15.50
2022-10-23T00:15:30.103Z,15.20
2022-10-23T00:17:57.354Z,15.60
2022-10-23T00:20:24.619Z,17.70
2022-10-23T00:22:51.998Z,15.32
2022-10-23T00:25:20.274Z,19.42
2022-10-23T00:27:47.610Z,17.47
2022-10-23T00:30:15.131Z,13.20
2022-10-23T00:32:42.395Z,14.70
2022-10-23T00:35:09.684Z,12.38
2022-10-23T00:37:36.980Z,18.48
2022-10-23T00:40:05.021Z,14.03
2022-10-23T00:42:32.230Z,11.77
2022-10-23T00:45:20.806Z,17.58
2022-10-23T00:47:48.541Z,11.15
2022-10-23T00:50:15.862Z,14.82
2022-10-23T00:52:46.926Z,19.30
2022-10-23T00:55:14.908Z,16.80
2022-10-23T00:57:43.470Z,15.95
2022-10-23T01:00:16.556Z,20.98
2022-10-23T01:02:44.220Z,33.03
2022-10-23T01:05:13.461Z,21.53
2022-10-23T01:07:50.047Z,19.95
2022-10-23T01:10:20.317Z,12.80
2022-10-23T01:13:02.470Z,14.27
2022-10-23T01:15:41.023Z,11.88
2022-10-23T01:18:08.241Z,16.97
2022-10-23T01:21:08.633Z,23.35
2022-10-23T01:23:57.938Z,22.88
2022-10-23T01:26:35.111Z,30.75
2022-10-23T01:29:10.668Z,34.20
2022-10-23T01:31:42.512Z,26.03
2022-10-23T01:34:14.718Z,26.58
2022-10-23T01:36:43.924Z,20.75
2022-10-23T01:39:17.754Z,20.17
2022-10-23T01:41:56.211Z,25.95
2022-10-23T01:44:35.399Z,20.87
2022-10-23T01:47:02.930Z,27.98
2022-10-23T01:49:32.689Z,22.23
2022-10-23T01:52:01.743Z,26.13
2022-10-23T01:54:30.825Z,24.23
2022-10-23T01:56:58.293Z,19.93
2022-10-23T01:59:35.426Z,29.40
2022-10-23T02:02:03.996Z,16.73
2022-10-23T02:04:36.686Z,13.88
2022-10-23T02:07:04.235Z,30.95
2022-10-23T02:09:31.861Z,31.73
2022-10-23T02:12:04.584Z,25.20
2022-10-23T02:14:34.469Z,17.25
2022-10-23T02:17:09.907Z,16.52
2022-10-23T02:20:36.048Z,22.75
2022-10-23T02:23:28.863Z,19.83
2022-10-23T02:26:03.081Z,19.27
2022-10-23T02:28:34.998Z,12.13
2022-10-23T02:31:03.110Z,28.55
2022-10-23T02:33:31.343Z,23.58
2022-10-23T02:35:58.662Z,23.13
2022-10-23T02:38:37.064Z,18.33
2022-10-23T02:41:16.587Z,19.92
2022-10-23T02:44:02.082Z,13.73
2022-10-23T02:46:36.634Z,13.57
2022-10-23T02:49:14.395Z,10.70
2022-10-23T02:51:53.297Z,13.43
2022-10-23T02:55:16.320Z,13.75
2022-10-23T02:58:04.651Z,16.70
2022-10-23T03:00:54.855Z,14.02
2022-10-23T03:03:28.585Z,20.60
2022-10-23T03:05:55.869Z,26.58
2022-10-23T03:08:23.162Z,17.58
2022-10-23T03:10:51.677Z,24.20
2022-10-23T03:13:20.965Z,31.75
2022-10-23T03:15:48.404Z,26.40
2022-10-23T03:18:15.702Z,38.67
2022-10-23T03:20:48.038Z,26.38
2022-10-23T03:23:15.803Z,30.05
2022-10-23T03:25:43.791Z,27.98
2022-10-23T03:28:24.175Z,26.00
2022-10-23T03:30:51.527Z,20.85
2022-10-23T03:33:18.786Z,18.27
2022-10-23T03:38:15.906Z,9.30
2022-10-23T03:40:43.417Z,13.33
2022-10-23T03:43:12.862Z,17.05
2022-10-23T03:45:40.221Z,13.30
2022-10-23T03:48:07.498Z,10.50
2022-10-23T03:50:35.928Z,24.02
2022-10-23T03:53:03.195Z,14.33
2022-10-23T03:55:30.668Z,16.35
2022-10-23T03:57:57.884Z,10.93
2022-10-23T04:00:25.146Z,19.60
2022-10-23T04:02:52.400Z,15.68
2022-10-23T04:05:19.709Z,11.07
2022-10-23T04:07:54.582Z,10.85
2022-10-23T04:10:22.136Z,13.40
2022-10-23T04:12:49.502Z,22.85
2022-10-23T04:15:16.804Z,17.13
2022-10-23T04:17:46.344Z,19.17
2022-10-23T04:20:13.892Z,17.80
2022-10-23T04:22:41.263Z,11.25
2022-10-23T04:25:09.015Z,19.35
2022-10-23T04:27:36.273Z,15.85
2022-10-23T04:30:03.878Z,22.43
2022-10-23T04:32:31.588Z,29.92
2022-10-23T04:34:58.852Z,11.68
2022-10-23T04:37:26.167Z,10.38
2022-10-23T04:39:53.465Z,12.90
2022-10-23T04:42:20.728Z,11.90
2022-10-23T04:44:48.127Z,9.75
2022-10-23T04:47:15.501Z,11.25
2022-10-23T04:49:57.947Z,9.13
2022-10-23T04:52:44.187Z,11.38
2022-10-23T04:55:30.332Z,8.23
2022-10-23T04:58:12.094Z,8.98
2022-10-23T05:00:39.534Z,11.23
2022-10-23T05:03:06.845Z,9.65
2022-10-23T05:05:38.327Z,9.75
2022-10-23T05:08:24.379Z,8.53
2022-10-23T05:11:12.939Z,7.55
2022-10-23T05:13:44.659Z,7.95
2022-10-23T05:16:13.285Z,8.27
2022-10-23T05:18:45.607Z,10.02
2022-10-23T05:21:22.260Z,13.20
2022-10-23T05:23:50.576Z,9.95
2022-10-23T05:26:18.449Z,8.75
2022-10-23T05:28:48.437Z,9.48
2022-10-23T05:31:18.242Z,11.90
2022-10-23T05:33:49.728Z,13.73
2022-10-23T05:36:17.026Z,8.70
2022-10-23T05:38:45.899Z,9.32
2022-10-23T05:41:18.194Z,12.57
2022-10-23T05:43:46.374Z,7.53
2022-10-23T05:46:32.036Z,10.73
2022-10-23T05:49:24.617Z,7.75
2022-10-23T05:51:54.715Z,21.75
2022-10-23T05:54:28.973Z,13.40
2022-10-23T05:57:14.931Z,12.45
2022-10-23T05:59:49.289Z,11.33
2022-10-23T06:02:24.429Z,13.48
2022-10-23T06:05:06.432Z,21.48
2022-10-23T06:07:49.952Z,31.58
2022-10-23T06:10:18.685Z,20.88
2022-10-23T06:12:48.325Z,39.87
2022-10-23T06:15:17.861Z,28.00
2022-10-23T06:18:02.454Z,24.52
2022-10-23T06:20:31.998Z,23.85
2022-10-23T06:23:08.724Z,24.55
2022-10-23T06:25:55.954Z,22.53
2022-10-23T06:28:31.875Z,20.25
2022-10-23T06:30:59.803Z,19.45
2022-10-23T06:33:27.214Z,16.25
2022-10-23T06:35:56.524Z,12.20
2022-10-23T06:38:23.874Z,11.83
2022-10-23T06:40:58.510Z,14.80
2022-10-23T06:43:34.781Z,10.10
2022-10-23T06:46:22.366Z,10.18
2022-10-23T06:49:01.555Z,16.30
2022-10-23T06:51:33.117Z,23.40
2022-10-23T06:54:00.554Z,14.90
2022-10-23T06:56:54.035Z,10.10
2022-10-23T06:59:33.251Z,18.13
2022-10-23T07:02:00.939Z,11.75
2022-10-23T07:04:28.439Z,11.30
2022-10-23T07:06:58.758Z,16.27
2022-10-23T07:09:32.508Z,19.65
2022-10-23T07:12:17.452Z,12.48
2022-10-23T07:14:50.727Z,11.80
2022-10-23T07:17:18.016Z,9.47
2022-10-23T07:19:46.820Z,13.27
2022-10-23T07:22:16.158Z,11.60
2022-10-23T07:25:03.502Z,9.30
2022-10-23T07:27:38.035Z,13.90
2022-10-23T07:30:07.811Z,8.37
2022-10-23T07:32:43.795Z,13.80
2022-10-23T07:35:19.793Z,8.85
2022-10-23T07:37:55.810Z,12.60
2022-10-23T07:40:23.179Z,14.55
2022-10-23T07:42:54.020Z,13.80
2022-10-23T07:45:21.365Z,17.95
2022-10-23T07:47:52.297Z,11.40
2022-10-23T07:50:21.600Z,10.05
2022-10-23T07:52:49.135Z,14.63
2022-10-23T07:55:17.915Z,9.53
2022-10-23T07:57:51.237Z,12.32
2022-10-23T08:00:33.792Z,9.73
2022-10-23T08:03:12.907Z,9.65
2022-10-23T08:05:40.646Z,12.02
2022-10-23T08:08:08.028Z,9.10
2022-10-23T08:10:37.421Z,8.43
2022-10-23T08:13:06.697Z,10.05
2022-10-23T08:15:51.018Z,8.65
2022-10-23T08:18:42.919Z,8.13
2022-10-23T08:21:10.420Z,8.07
2022-10-23T08:23:37.926Z,8.25
2022-10-23T08:26:05.885Z,6.90
2022-10-23T08:28:33.223Z,7.15
2022-10-23T08:31:28.265Z,7.00
2022-10-23T08:34:14.396Z,7.87
2022-10-23T08:36:43.617Z,7.10
2022-10-23T08:39:11.769Z,6.38
2022-10-23T08:41:50.787Z,7.20
2022-10-23T08:44:36.546Z,7.55
2022-10-23T08:47:07.832Z,7.37
2022-10-23T08:49:58.485Z,8.10
2022-10-23T08:52:30.361Z,7.45
2022-10-23T08:55:15.633Z,7.18
2022-10-23T08:57:51.364Z,7.53
2022-10-23T09:00:18.971Z,7.10
2022-10-23T09:02:50.928Z,7.57
2022-10-23T09:05:30.838Z,8.82
2022-10-23T09:08:18.440Z,7.35
2022-10-23T09:11:04.320Z,9.00
2022-10-23T09:13:59.459Z,7.20
2022-10-23T09:16:56.009Z,7.13
2022-10-23T09:19:27.420Z,6.88
2022-10-23T09:21:54.912Z,7.72
2022-10-23T09:24:24.601Z,8.88
2022-10-23T09:26:52.914Z,6.50
2022-10-23T09:29:32.048Z,6.18
2022-10-23T09:32:00.362Z,6.15
2022-10-23T09:34:31.653Z,7.05
2022-10-23T09:37:01.167Z,6.90
2022-10-23T09:39:33.277Z,7.10
2022-10-23T09:42:02.527Z,7.28
2022-10-23T09:44:31.280Z,6.82
2022-10-23T09:47:07.789Z,7.07
2022-10-23T09:49:35.235Z,6.40
2022-10-23T09:52:08.507Z,10.20
2022-10-23T09:54:44.584Z,8.85
2022-10-23T09:57:17.986Z,7.88
2022-10-23T09:59:49.775Z,8.32
2022-10-23T10:02:36.391Z,6.55
2022-10-23T10:05:32.722Z,9.07
2022-10-23T10:08:22.631Z,6.57
2022-10-23T10:10:56.627Z,7.07
2022-10-23T10:13:33.031Z,7.15
2022-10-23T10:16:19.192Z,8.15
2022-10-23T10:19:08.294Z,7.37
2022-10-23T10:22:01.001Z,4.40
2022-10-23T10:25:01.592Z,6.00
2022-10-23T10:27:54.819Z,6.00
2022-10-23T10:30:24.929Z,6.75
2022-10-23T10:33:02.015Z,6.33
2022-10-23T10:35:40.879Z,7.25
2022-10-23T10:38:14.102Z,8.10
2022-10-23T10:41:26.650Z,6.85
2022-10-23T10:43:57.092Z,5.70
2022-10-23T10:46:44.930Z,5.53
2022-10-23T10:49:22.899Z,6.03
2022-10-23T10:52:06.399Z,7.25
2022-10-23T10:54:43.069Z,8.07
2022-10-23T10:57:24.385Z,5.47
2022-10-23T10:59:51.695Z,13.93
2022-10-23T11:02:34.194Z,4.55
2022-10-23T11:05:15.553Z,7.05
2022-10-23T11:08:14.054Z,4.63
2022-10-23T11:10:45.793Z,3.92
2022-10-23T11:13:29.221Z,5.23
2022-10-23T11:15:59.257Z,5.22
2022-10-23T11:18:28.750Z,5.50
2022-10-23T11:21:08.560Z,5.90
2022-10-23T11:23:41.633Z,5.95
2022-10-23T11:26:46.955Z,6.37
2022-10-23T11:29:40.982Z,8.00
2022-10-23T11:32:14.147Z,4.90
2022-10-23T11:34:52.035Z,6.30
2022-10-23T11:37:19.780Z,4.97
2022-10-23T11:40:21.899Z,7.13
2022-10-23T11:42:50.382Z,4.70
2022-10-23T11:45:37.919Z,5.55
2022-10-23T11:48:14.434Z,5.85
2022-10-23T11:50:44.868Z,7.72
2022-10-23T11:53:25.645Z,5.37
2022-10-23T11:56:06.868Z,5.78
2022-10-23T11:58:43.389Z,4.75
2022-10-23T12:01:24.509Z,6.80
2022-10-23T12:03:56.940Z,7.38
2022-10-23T12:06:39.076Z,5.50
2022-10-23T12:09:26.637Z,7.60
2022-10-23T12:12:09.185Z,6.25
2022-10-23T12:14:37.774Z,6.35
2022-10-23T12:17:24.824Z,6.93
2022-10-23T12:20:19.342Z,4.70
2022-10-23T12:23:01.493Z,6.03
2022-10-23T12:25:59.046Z,6.32
2022-10-23T12:28:37.331Z,5.70
2022-10-23T12:31:04.801Z,7.43
2022-10-23T12:34:04.157Z,5.37
2022-10-23T12:36:49.742Z,9.68
2022-10-23T12:39:37.425Z,6.78
2022-10-23T12:42:05.298Z,5.97
2022-10-23T12:44:32.599Z,5.70
2022-10-23T12:47:01.171Z,5.17
2022-10-23T12:49:31.586Z,6.57
2022-10-23T12:52:06.653Z,5.97
2022-10-23T12:54:38.702Z,6.03
2022-10-23T12:57:28.449Z,7.18
2022-10-23T12:59:58.251Z,6.47
2022-10-23T13:02:27.564Z,6.07
2022-10-23T13:04:55.975Z,8.52
2022-10-23T13:07:28.097Z,7.03
2022-10-23T13:09:59.114Z,8.50
2022-10-23T13:12:31.206Z,7.17
2022-10-23T13:15:07.744Z,6.72
2022-10-23T13:17:39.565Z,6.65
2022-10-23T13:20:16.586Z,8.60
2022-10-23T13:22:48.227Z,6.88
2022-10-23T13:25:35.085Z,7.13
2022-10-23T13:28:08.351Z,6.43
2022-10-23T13:30:40.449Z,8.70
2022-10-23T13:33:26.366Z,6.93
2022-10-23T13:36:19.131Z,7.28
2022-10-23T13:39:02.447Z,7.37
2022-10-23T13:41:40.695Z,7.35
2022-10-23T13:44:09.529Z,11.75
2022-10-23T13:46:36.727Z,8.75
2022-10-23T13:49:04.005Z,7.95
2022-10-23T13:51:47.595Z,6.10
2022-10-23T13:54:19.686Z,7.75
2022-10-23T13:56:47.279Z,6.60
2022-10-23T13:59:15.132Z,7.57
2022-10-23T14:01:42.813Z,6.15
2022-10-23T14:04:11.373Z,7.67
2022-10-23T14:06:38.881Z,6.57
2022-10-23T14:09:07.092Z,8.85
2022-10-23T14:11:34.491Z,8.95
2022-10-23T14:14:01.844Z,6.35
2022-10-23T14:16:30.102Z,6.63
2022-10-23T14:18:57.489Z,7.55
2022-10-23T14:21:25.751Z,8.52
2022-10-23T14:23:53.547Z,7.07
2022-10-23T14:26:24.842Z,7.20
2022-10-23T14:28:53.942Z,7.77
2022-10-23T14:31:21.217Z,7.80
2022-10-23T14:33:56.012Z,6.82
2022-10-23T14:36:23.670Z,10.15
2022-10-23T14:38:55.826Z,9.80
2022-10-23T14:41:23.605Z,8.23
2022-10-23T14:43:50.855Z,6.90
2022-10-23T14:46:21.786Z,8.18
2022-10-23T14:48:51.028Z,6.80
2022-10-23T14:51:25.295Z,11.98
2022-10-23T14:54:06.067Z,10.67
2022-10-23T14:56:34.676Z,11.15
2022-10-23T14:59:04.781Z,11.60
2022-10-23T15:01:33.340Z,8.45
2022-10-23T15:04:00.854Z,7.53
2022-10-23T15:06:28.181Z,9.50
2022-10-23T15:08:55.735Z,8.05
2022-10-23T15:11:23.748Z,10.15
2022-10-23T15:13:51.077Z,8.70
2022-10-23T15:16:18.529Z,8.20
2022-10-23T15:18:45.764Z,8.57
2022-10-23T15:21:13.283Z,9.77
2022-10-23T15:23:43.521Z,9.07
2022-10-23T15:26:20.106Z,8.45
2022-10-23T15:28:58.624Z,10.48
2022-10-23T15:31:37.562Z,9.17
2022-10-23T15:34:05.629Z,8.15
2022-10-23T15:36:32.984Z,9.68
2022-10-23T15:39:00.313Z,14.60
2022-10-23T15:41:28.854Z,8.73
2022-10-23T15:43:56.504Z,9.33
2022-10-23T15:46:23.745Z,9.55
2022-10-23T15:48:51.186Z,8.77
2022-10-23T15:51:18.394Z,10.30
2022-10-23T15:53:45.668Z,9.55
2022-10-23T15:56:13.065Z,9.43
2022-10-23T15:58:40.407Z,13.77
2022-10-23T16:01:07.847Z,12.40
2022-10-23T16:03:35.832Z,10.35
2022-10-23T16:06:07.030Z,11.57
2022-10-23T16:08:34.345Z,14.53
2022-10-23T16:11:01.848Z,18.35
2022-10-23T16:13:29.225Z,22.27
2022-10-23T16:15:56.453Z,47.20
2022-10-23T16:18:23.824Z,40.28
2022-10-23T16:20:51.140Z,34.23
2022-10-23T16:23:18.389Z,27.73
2022-10-23T16:25:46.535Z,22.98
2022-10-23T16:28:13.974Z,22.67
2022-10-23T16:30:42.438Z,27.80
2022-10-23T16:33:09.778Z,23.63
2022-10-23T16:35:37.635Z,22.67
2022-10-23T16:38:13.735Z,20.60
2022-10-23T16:40:41.123Z,22.92
2022-10-23T16:43:39.260Z,30.85
2022-10-23T16:46:39.822Z,30.43
2022-10-23T16:49:08.911Z,25.92
2022-10-23T16:51:36.256Z,34.13
2022-10-23T16:54:04.072Z,36.65
2022-10-23T16:56:31.481Z,29.50
2022-10-23T16:58:59.823Z,25.50
2022-10-23T17:01:29.217Z,29.13
2022-10-23T17:03:57.204Z,27.80
2022-10-23T17:06:26.577Z,29.80
2022-10-23T17:08:54.700Z,28.45
2022-10-23T17:11:24.156Z,27.33
2022-10-23T17:13:58.601Z,27.65
2022-10-23T17:16:35.100Z,26.45
2022-10-23T17:19:03.174Z,26.55
2022-10-23T17:21:32.795Z,28.20
2022-10-23T17:24:00.235Z,26.03
2022-10-23T17:26:27.871Z,28.58
2022-10-23T17:28:57.165Z,34.63
2022-10-23T17:31:29.946Z,29.83
2022-10-23T17:33:58.698Z,36.58
2022-10-23T17:36:26.631Z,27.20
2022-10-23T17:38:53.952Z,39.83
2022-10-23T17:41:21.899Z,30.02
2022-10-23T17:43:49.724Z,31.33
2022-10-23T17:46:17.500Z,26.75
2022-10-23T17:48:44.781Z,27.23
2022-10-23T17:51:22.632Z,30.48
2022-10-23T17:53:51.079Z,35.92
2022-10-23T17:56:22.627Z,33.20
2022-10-23T17:58:50.474Z,34.20
2022-10-23T18:01:19.616Z,31.47
2022-10-23T18:03:47.197Z,29.23
2022-10-23T18:06:19.744Z,31.80
2022-10-23T18:08:47.319Z,41.90
2022-10-23T18:11:18.904Z,37.08
2022-10-23T18:13:46.386Z,40.00
2022-10-23T18:16:13.978Z,35.35
2022-10-23T18:18:41.945Z,41.17
2022-10-23T18:21:09.318Z,46.90
2022-10-23T18:23:36.816Z,40.38
2022-10-23T18:26:04.563Z,37.37
2022-10-23T18:28:31.948Z,31.52
2022-10-23T18:30:59.290Z,35.85
2022-10-23T18:33:26.888Z,39.38
2022-10-23T18:35:54.246Z,41.15
2022-10-23T18:38:21.817Z,40.33
2022-10-23T18:40:49.046Z,42.63
2022-10-23T18:43:31.268Z,37.97
2022-10-23T18:46:04.290Z,33.70
2022-10-23T18:48:31.596Z,42.90
2022-10-23T18:50:58.889Z,36.37
2022-10-23T18:53:26.189Z,39.63
2022-10-23T18:55:53.485Z,31.08
2022-10-23T18:58:20.857Z,37.55
2022-10-23T19:00:48.218Z,30.90
2022-10-23T19:03:15.671Z,28.50
2022-10-23T19:05:46.381Z,30.23
2022-10-23T19:08:13.767Z,31.73
2022-10-23T19:10:41.182Z,32.65
2022-10-23T19:13:08.589Z,40.88
2022-10-23T19:15:35.819Z,33.90
2022-10-23T19:18:04.247Z,33.75
2022-10-23T19:20:31.517Z,35.60
2022-10-23T19:22:59.003Z,42.42
2022-10-23T19:25:31.331Z,40.65
2022-10-23T19:27:58.744Z,41.37
2022-10-23T19:30:26.445Z,65.90
2022-10-23T19:32:53.763Z,42.05
2022-10-23T19:35:21.337Z,45.00
2022-10-23T19:37:49.075Z,42.00
2022-10-23T19:40:16.461Z,45.57
2022-10-23T19:42:44.342Z,46.22
2022-10-23T19:45:13.233Z,48.35
2022-10-23T19:47:41.125Z,47.10
2022-10-23T19:50:09.044Z,42.22
2022-10-23T19:52:36.341Z,46.57
2022-10-23T19:55:04.446Z,49.50
2022-10-23T19:57:33.912Z,49.60
2022-10-23T20:00:01.344Z,56.17
2022-10-23T20:02:28.944Z,64.07
2022-10-23T20:04:56.301Z,67.53
2022-10-23T20:07:23.624Z,68.82
2022-10-23T20:09:50.838Z,64.57
2022-10-23T20:12:18.162Z,71.50
2022-10-23T20:14:45.463Z,56.38
2022-10-23T20:17:12.757Z,52.63
2022-10-23T20:19:40.070Z,71.72
2022-10-23T20:22:07.382Z,101.00
2022-10-23T20:24:34.649Z,62.92
2022-10-23T20:27:01.994Z,86.03
2022-10-23T20:29:29.910Z,63.47
2022-10-23T20:31:57.238Z,56.95
2022-10-23T20:34:24.596Z,42.85
2022-10-23T20:36:52.051Z,33.25
2022-10-23T20:39:21.241Z,47.70
2022-10-23T20:41:48.675Z,65.13
2022-10-23T20:46:49.067Z,40.17
2022-10-23T20:49:16.345Z,34.25
2022-10-23T20:51:43.719Z,29.67
2022-10-23T20:54:10.944Z,31.67
2022-10-23T20:56:38.909Z,40.85
2022-10-23T20:59:07.981Z,33.10
2022-10-23T21:01:35.386Z,26.27
2022-10-23T21:04:03.321Z,37.40
2022-10-23T21:06:41.048Z,26.70
2022-10-23T21:09:18.680Z,27.17
2022-10-23T21:11:46.002Z,21.30
2022-10-23T21:14:13.402Z,17.45
2022-10-23T21:16:46.509Z,18.73
2022-10-23T21:19:14.773Z,20.23
2022-10-23T21:21:42.482Z,16.67
2022-10-23T21:24:12.652Z,15.15
2022-10-23T21:26:39.994Z,12.57
2022-10-23T21:29:17.846Z,12.32
2022-10-23T21:31:46.179Z,16.63
2022-10-23T21:34:13.384Z,11.23
2022-10-23T21:36:54.170Z,12.00
2022-10-23T21:39:28.749Z,17.20
2022-10-23T21:41:55.945Z,12.07
2022-10-23T21:44:23.550Z,12.57
2022-10-23T21:46:50.910Z,20.88
2022-10-23T21:49:18.195Z,27.80
2022-10-23T21:51:45.392Z,19.88
2022-10-23T21:54:13.415Z,25.90
2022-10-23T21:56:43.844Z,22.10
2022-10-23T21:59:13.665Z,12.90
2022-10-23T22:01:41.849Z,13.25
2022-10-23T22:04:10.303Z,13.23
2022-10-23T22:06:37.585Z,12.85
2022-10-23T22:09:05.081Z,13.83
2022-10-23T22:11:32.438Z,13.77
2022-10-23T22:13:59.839Z,13.75
2022-10-23T22:16:27.632Z,12.40
2022-10-23T22:18:54.896Z,13.65
2022-10-23T22:21:23.982Z,10.70
2022-10-23T22:23:51.550Z,11.98
2022-10-23T22:26:23.777Z,12.13
2022-10-23T22:28:52.170Z,12.70
2022-10-23T22:31:21.305Z,10.68
2022-10-23T22:33:48.850Z,11.50
2022-10-23T22:36:16.137Z,12.07
2022-10-23T22:38:44.519Z,11.85
2022-10-23T22:41:11.926Z,13.60
2022-10-23T22:43:39.323Z,11.85
2022-10-23T22:46:18.034Z,11.77
2022-10-23T22:48:45.790Z,12.90
2022-10-23T22:51:14.567Z,11.77
2022-10-23T22:53:42.191Z,10.77
2022-10-23T22:56:11.621Z,12.40
2022-10-23T22:58:39.033Z,11.53
2022-10-23T23:01:15.788Z,9.68
2022-10-23T23:03:43.196Z,13.25
2022-10-23T23:06:10.517Z,10.65
2022-10-23T23:08:38.412Z,11.15
2022-10-23T23:11:06.567Z,10.40
2022-10-23T23:13:33.980Z,10.25
2022-10-23T23:16:01.262Z,10.60
2022-10-23T23:18:28.651Z,10.35
2022-10-23T23:21:00.075Z,10.70
2022-10-23T23:23:27.445Z,11.03
2022-10-23T23:25:54.665Z,11.35
2022-10-23T23:28:22.031Z,10.70
2022-10-23T23:30:49.228Z,11.43
2022-10-23T23:33:19.261Z,11.63
2022-10-23T23:35:48.341Z,10.47
2022-10-23T23:38:15.532Z,12.98
2022-10-23T23:40:49.916Z,10.45
2022-10-23T23:43:17.136Z,11.55
2022-10-23T23:45:44.323Z,11.50
2022-10-23T23:48:11.761Z,10.63
2022-10-23T23:50:39.035Z,10.80
2022-10-23T23:53:06.312Z,10.15
2022-10-23T23:55:33.595Z,12.25
2022-10-23T23:58:01.015Z,11.98
